sensor_id;sensor_type;location;lat;lon;timestamp;temperature;humidity
23629;DHT22;11991;57.150;-2.134;2023-05-16T00:01:22;11.00;99.90
23629;DHT22;11991;57.150;-2.134;2023-05-16T00:03:50;11.00;99.90
23629;DHT22;11991;57.150;-2.134;2023-05-16T00:06:17;11.00;99.90
23629;DHT22;11991;57.150;-2.134;2023-05-16T00:08:44;11.00;99.90
23629;DHT22;11991;57.150;-2.134;2023-05-16T00:11:11;11.00;99.90
23629;DHT22;11991;57.150;-2.134;2023-05-16T00:13:39;11.00;99.90
23629;DHT22;11991;57.150;-2.134;2023-05-16T00:16:08;11.10;99.90
23629;DHT22;11991;57.150;-2.134;2023-05-16T00:18:35;11.10;99.90
23629;DHT22;11991;57.150;-2.134;2023-05-16T00:21:03;11.10;99.90
23629;DHT22;11991;57.150;-2.134;2023-05-16T00:23:30;11.10;99.90
23629;DHT22;11991;57.150;-2.134;2023-05-16T00:25:57;11.10;99.90
23629;DHT22;11991;57.150;-2.134;2023-05-16T00:28:25;11.20;99.90
23629;DHT22;11991;57.150;-2.134;2023-05-16T00:30:52;11.20;99.90
23629;DHT22;11991;57.150;-2.134;2023-05-16T00:33:19;11.20;99.90
23629;DHT22;11991;57.150;-2.134;2023-05-16T00:35:46;11.20;99.90
23629;DHT22;11991;57.150;-2.134;2023-05-16T00:38:13;11.30;99.90
23629;DHT22;11991;57.150;-2.134;2023-05-16T00:40:40;11.30;99.90
23629;DHT22;11991;57.150;-2.134;2023-05-16T00:43:08;11.30;99.90
23629;DHT22;11991;57.150;-2.134;2023-05-16T00:45:35;11.30;99.90
23629;DHT22;11991;57.150;-2.134;2023-05-16T00:48:03;11.20;99.90
23629;DHT22;11991;57.150;-2.134;2023-05-16T00:50:32;11.20;99.90
23629;DHT22;11991;57.150;-2.134;2023-05-16T00:52:59;11.20;99.90
23629;DHT22;11991;57.150;-2.134;2023-05-16T00:55:26;11.20;99.90
23629;DHT22;11991;57.150;-2.134;2023-05-16T00:57:54;11.20;99.90
23629;DHT22;11991;57.150;-2.134;2023-05-16T01:00:21;11.10;99.90
23629;DHT22;11991;57.150;-2.134;2023-05-16T01:02:48;11.10;99.90
23629;DHT22;11991;57.150;-2.134;2023-05-16T01:05:19;11.10;99.90
23629;DHT22;11991;57.150;-2.134;2023-05-16T01:07:47;11.10;99.90
23629;DHT22;11991;57.150;-2.134;2023-05-16T01:10:14;11.10;99.90
23629;DHT22;11991;57.150;-2.134;2023-05-16T01:12:56;11.10;99.90
23629;DHT22;11991;57.150;-2.134;2023-05-16T01:15:29;11.20;99.90
23629;DHT22;11991;57.150;-2.134;2023-05-16T01:20:58;11.10;99.90
23629;DHT22;11991;57.150;-2.134;2023-05-16T01:23:51;11.10;99.90
23629;DHT22;11991;57.150;-2.134;2023-05-16T01:26:25;11.10;99.90
23629;DHT22;11991;57.150;-2.134;2023-05-16T01:28:53;11.10;99.90
23629;DHT22;11991;57.150;-2.134;2023-05-16T01:31:21;11.10;99.90
23629;DHT22;11991;57.150;-2.134;2023-05-16T01:33:50;11.10;99.90
23629;DHT22;11991;57.150;-2.134;2023-05-16T01:39:04;11.10;99.90
23629;DHT22;11991;57.150;-2.134;2023-05-16T01:42:20;11.10;99.90
23629;DHT22;11991;57.150;-2.134;2023-05-16T01:47:15;11.00;99.90
23629;DHT22;11991;57.150;-2.134;2023-05-16T01:52:37;11.00;99.90
23629;DHT22;11991;57.150;-2.134;2023-05-16T01:55:10;11.00;99.90
23629;DHT22;11991;57.150;-2.134;2023-05-16T01:57:39;11.00;99.90
23629;DHT22;11991;57.150;-2.134;2023-05-16T02:00:07;11.00;99.90
23629;DHT22;11991;57.150;-2.134;2023-05-16T02:02:39;11.00;99.90
23629;DHT22;11991;57.150;-2.134;2023-05-16T02:05:08;11.00;99.90
23629;DHT22;11991;57.150;-2.134;2023-05-16T02:07:35;11.00;99.90
23629;DHT22;11991;57.150;-2.134;2023-05-16T02:10:02;11.00;99.90
23629;DHT22;11991;57.150;-2.134;2023-05-16T02:12:34;11.10;99.90
23629;DHT22;11991;57.150;-2.134;2023-05-16T02:15:01;11.10;99.90
23629;DHT22;11991;57.150;-2.134;2023-05-16T02:17:28;11.10;99.90
23629;DHT22;11991;57.150;-2.134;2023-05-16T02:19:56;11.10;99.90
23629;DHT22;11991;57.150;-2.134;2023-05-16T02:22:23;11.10;99.90
23629;DHT22;11991;57.150;-2.134;2023-05-16T02:24:52;11.10;99.90
23629;DHT22;11991;57.150;-2.134;2023-05-16T02:27:19;11.10;99.90
23629;DHT22;11991;57.150;-2.134;2023-05-16T02:29:46;11.10;99.90
23629;DHT22;11991;57.150;-2.134;2023-05-16T02:32:13;11.00;99.90
23629;DHT22;11991;57.150;-2.134;2023-05-16T02:34:40;11.00;99.90
23629;DHT22;11991;57.150;-2.134;2023-05-16T02:37:08;11.00;99.90
23629;DHT22;11991;57.150;-2.134;2023-05-16T02:39:38;11.00;99.90
23629;DHT22;11991;57.150;-2.134;2023-05-16T02:42:06;11.00;99.90
23629;DHT22;11991;57.150;-2.134;2023-05-16T02:44:33;11.00;99.90
23629;DHT22;11991;57.150;-2.134;2023-05-16T02:47:00;11.00;99.90
23629;DHT22;11991;57.150;-2.134;2023-05-16T02:49:27;10.90;99.90
23629;DHT22;11991;57.150;-2.134;2023-05-16T02:51:54;11.00;99.90
23629;DHT22;11991;57.150;-2.134;2023-05-16T02:54:21;11.00;99.90
23629;DHT22;11991;57.150;-2.134;2023-05-16T02:56:48;11.00;99.90
23629;DHT22;11991;57.150;-2.134;2023-05-16T02:59:18;11.00;99.90
23629;DHT22;11991;57.150;-2.134;2023-05-16T03:01:45;11.00;99.90
23629;DHT22;11991;57.150;-2.134;2023-05-16T03:04:12;11.00;99.90
23629;DHT22;11991;57.150;-2.134;2023-05-16T03:06:40;11.00;99.90
23629;DHT22;11991;57.150;-2.134;2023-05-16T03:09:07;11.00;99.90
23629;DHT22;11991;57.150;-2.134;2023-05-16T03:11:34;11.00;99.90
23629;DHT22;11991;57.150;-2.134;2023-05-16T03:14:02;11.00;99.90
23629;DHT22;11991;57.150;-2.134;2023-05-16T03:16:29;11.00;99.90
23629;DHT22;11991;57.150;-2.134;2023-05-16T03:18:56;11.00;99.90
23629;DHT22;11991;57.150;-2.134;2023-05-16T03:21:24;11.00;99.90
23629;DHT22;11991;57.150;-2.134;2023-05-16T03:23:51;10.90;99.90
23629;DHT22;11991;57.150;-2.134;2023-05-16T03:26:18;10.90;99.90
23629;DHT22;11991;57.150;-2.134;2023-05-16T03:28:47;10.80;99.90
23629;DHT22;11991;57.150;-2.134;2023-05-16T03:31:14;10.80;99.90
23629;DHT22;11991;57.150;-2.134;2023-05-16T03:33:42;10.70;99.90
23629;DHT22;11991;57.150;-2.134;2023-05-16T03:36:09;10.70;99.90
23629;DHT22;11991;57.150;-2.134;2023-05-16T03:38:37;10.70;99.90
23629;DHT22;11991;57.150;-2.134;2023-05-16T03:41:04;10.60;99.90
23629;DHT22;11991;57.150;-2.134;2023-05-16T03:43:31;10.60;99.90
23629;DHT22;11991;57.150;-2.134;2023-05-16T03:46:00;10.60;99.90
23629;DHT22;11991;57.150;-2.134;2023-05-16T03:48:27;10.60;99.90
23629;DHT22;11991;57.150;-2.134;2023-05-16T03:50:54;10.50;99.90
23629;DHT22;11991;57.150;-2.134;2023-05-16T03:53:21;10.50;99.90
23629;DHT22;11991;57.150;-2.134;2023-05-16T03:55:48;10.50;99.90
23629;DHT22;11991;57.150;-2.134;2023-05-16T03:58:15;10.50;99.90
23629;DHT22;11991;57.150;-2.134;2023-05-16T04:00:42;10.50;99.90
23629;DHT22;11991;57.150;-2.134;2023-05-16T04:03:11;10.50;99.90
23629;DHT22;11991;57.150;-2.134;2023-05-16T04:05:38;10.50;99.90
23629;DHT22;11991;57.150;-2.134;2023-05-16T04:08:06;10.50;99.90
23629;DHT22;11991;57.150;-2.134;2023-05-16T04:10:33;10.50;99.90
23629;DHT22;11991;57.150;-2.134;2023-05-16T04:13:00;10.50;99.90
23629;DHT22;11991;57.150;-2.134;2023-05-16T04:15:27;10.50;99.90
23629;DHT22;11991;57.150;-2.134;2023-05-16T04:17:55;10.50;99.90
23629;DHT22;11991;57.150;-2.134;2023-05-16T04:20:22;10.50;99.90
23629;DHT22;11991;57.150;-2.134;2023-05-16T04:22:49;10.50;99.90
23629;DHT22;11991;57.150;-2.134;2023-05-16T04:25:16;10.50;99.90
23629;DHT22;11991;57.150;-2.134;2023-05-16T04:27:43;10.40;99.90
23629;DHT22;11991;57.150;-2.134;2023-05-16T04:30:11;10.40;99.90
23629;DHT22;11991;57.150;-2.134;2023-05-16T04:32:38;10.40;99.90
23629;DHT22;11991;57.150;-2.134;2023-05-16T04:35:05;10.40;99.90
23629;DHT22;11991;57.150;-2.134;2023-05-16T04:37:35;10.40;99.90
23629;DHT22;11991;57.150;-2.134;2023-05-16T04:40:02;10.50;99.90
23629;DHT22;11991;57.150;-2.134;2023-05-16T04:42:29;10.50;99.90
23629;DHT22;11991;57.150;-2.134;2023-05-16T04:44:56;10.60;99.90
23629;DHT22;11991;57.150;-2.134;2023-05-16T04:47:24;10.60;99.90
23629;DHT22;11991;57.150;-2.134;2023-05-16T04:49:51;10.60;99.90
23629;DHT22;11991;57.150;-2.134;2023-05-16T04:52:18;10.60;99.90
23629;DHT22;11991;57.150;-2.134;2023-05-16T04:54:45;10.70;99.90
23629;DHT22;11991;57.150;-2.134;2023-05-16T04:57:12;10.70;99.90
23629;DHT22;11991;57.150;-2.134;2023-05-16T04:59:39;10.70;99.90
23629;DHT22;11991;57.150;-2.134;2023-05-16T05:02:06;10.80;99.90
23629;DHT22;11991;57.150;-2.134;2023-05-16T05:04:33;10.80;99.90
23629;DHT22;11991;57.150;-2.134;2023-05-16T05:07:01;10.80;99.90
23629;DHT22;11991;57.150;-2.134;2023-05-16T05:09:28;10.80;99.90
23629;DHT22;11991;57.150;-2.134;2023-05-16T05:11:55;10.80;99.90
23629;DHT22;11991;57.150;-2.134;2023-05-16T05:14:22;10.90;99.90
23629;DHT22;11991;57.150;-2.134;2023-05-16T05:16:49;10.90;99.90
23629;DHT22;11991;57.150;-2.134;2023-05-16T05:19:16;10.90;99.90
23629;DHT22;11991;57.150;-2.134;2023-05-16T05:21:43;11.00;99.90
23629;DHT22;11991;57.150;-2.134;2023-05-16T05:24:11;11.10;99.90
23629;DHT22;11991;57.150;-2.134;2023-05-16T05:26:38;11.10;99.90
23629;DHT22;11991;57.150;-2.134;2023-05-16T05:29:05;11.10;99.90
23629;DHT22;11991;57.150;-2.134;2023-05-16T05:31:32;11.20;99.90
23629;DHT22;11991;57.150;-2.134;2023-05-16T05:34:01;11.20;99.90
23629;DHT22;11991;57.150;-2.134;2023-05-16T05:36:28;11.20;99.90
23629;DHT22;11991;57.150;-2.134;2023-05-16T05:38:56;11.30;99.90
23629;DHT22;11991;57.150;-2.134;2023-05-16T05:41:24;11.30;99.90
23629;DHT22;11991;57.150;-2.134;2023-05-16T05:43:52;11.30;99.90
23629;DHT22;11991;57.150;-2.134;2023-05-16T05:46:19;11.30;99.90
23629;DHT22;11991;57.150;-2.134;2023-05-16T05:48:46;11.30;99.90
23629;DHT22;11991;57.150;-2.134;2023-05-16T05:51:13;11.40;99.90
23629;DHT22;11991;57.150;-2.134;2023-05-16T05:53:40;11.30;99.90
23629;DHT22;11991;57.150;-2.134;2023-05-16T05:56:07;11.40;99.90
23629;DHT22;11991;57.150;-2.134;2023-05-16T05:58:35;11.40;99.90
23629;DHT22;11991;57.150;-2.134;2023-05-16T06:01:02;11.40;99.90
23629;DHT22;11991;57.150;-2.134;2023-05-16T06:03:29;11.30;99.90
23629;DHT22;11991;57.150;-2.134;2023-05-16T06:05:56;11.30;99.90
23629;DHT22;11991;57.150;-2.134;2023-05-16T06:08:24;11.30;99.90
23629;DHT22;11991;57.150;-2.134;2023-05-16T06:10:51;11.20;99.90
23629;DHT22;11991;57.150;-2.134;2023-05-16T06:13:18;11.20;99.90
23629;DHT22;11991;57.150;-2.134;2023-05-16T06:15:50;11.20;99.90
23629;DHT22;11991;57.150;-2.134;2023-05-16T06:18:17;11.20;99.90
23629;DHT22;11991;57.150;-2.134;2023-05-16T06:20:44;11.10;99.90
23629;DHT22;11991;57.150;-2.134;2023-05-16T06:23:11;11.10;99.90
23629;DHT22;11991;57.150;-2.134;2023-05-16T06:25:38;11.20;99.90
23629;DHT22;11991;57.150;-2.134;2023-05-16T06:28:05;11.20;99.90
23629;DHT22;11991;57.150;-2.134;2023-05-16T06:30:32;11.30;99.90
23629;DHT22;11991;57.150;-2.134;2023-05-16T06:33:00;11.30;99.90
23629;DHT22;11991;57.150;-2.134;2023-05-16T06:35:27;11.40;99.90
23629;DHT22;11991;57.150;-2.134;2023-05-16T06:37:55;11.40;99.90
23629;DHT22;11991;57.150;-2.134;2023-05-16T06:40:22;11.50;99.90
23629;DHT22;11991;57.150;-2.134;2023-05-16T06:42:49;11.60;99.90
23629;DHT22;11991;57.150;-2.134;2023-05-16T06:45:16;11.60;99.90
23629;DHT22;11991;57.150;-2.134;2023-05-16T06:47:43;11.60;99.90
23629;DHT22;11991;57.150;-2.134;2023-05-16T06:50:10;11.70;99.90
23629;DHT22;11991;57.150;-2.134;2023-05-16T06:52:37;11.70;99.90
23629;DHT22;11991;57.150;-2.134;2023-05-16T06:55:05;11.70;99.90
23629;DHT22;11991;57.150;-2.134;2023-05-16T06:57:32;11.80;99.90
23629;DHT22;11991;57.150;-2.134;2023-05-16T06:59:59;11.70;99.90
23629;DHT22;11991;57.150;-2.134;2023-05-16T07:02:26;11.70;99.90
23629;DHT22;11991;57.150;-2.134;2023-05-16T07:04:53;11.70;99.90
23629;DHT22;11991;57.150;-2.134;2023-05-16T07:07:21;11.70;99.90
23629;DHT22;11991;57.150;-2.134;2023-05-16T07:09:48;11.70;99.90
23629;DHT22;11991;57.150;-2.134;2023-05-16T07:12:15;11.60;99.90
23629;DHT22;11991;57.150;-2.134;2023-05-16T07:14:42;11.60;99.90
23629;DHT22;11991;57.150;-2.134;2023-05-16T07:17:09;11.70;99.90
23629;DHT22;11991;57.150;-2.134;2023-05-16T07:19:37;11.70;99.90
23629;DHT22;11991;57.150;-2.134;2023-05-16T07:22:04;11.60;99.90
23629;DHT22;11991;57.150;-2.134;2023-05-16T07:24:31;11.60;99.90
23629;DHT22;11991;57.150;-2.134;2023-05-16T07:26:58;11.70;99.90
23629;DHT22;11991;57.150;-2.134;2023-05-16T07:29:26;11.70;99.90
23629;DHT22;11991;57.150;-2.134;2023-05-16T07:31:53;11.60;99.90
23629;DHT22;11991;57.150;-2.134;2023-05-16T07:34:20;11.60;99.90
23629;DHT22;11991;57.150;-2.134;2023-05-16T07:36:47;11.60;99.90
23629;DHT22;11991;57.150;-2.134;2023-05-16T07:39:14;11.50;99.90
23629;DHT22;11991;57.150;-2.134;2023-05-16T07:41:42;11.50;99.90
23629;DHT22;11991;57.150;-2.134;2023-05-16T07:44:09;11.50;99.90
23629;DHT22;11991;57.150;-2.134;2023-05-16T07:46:36;11.60;99.90
23629;DHT22;11991;57.150;-2.134;2023-05-16T07:49:04;11.60;99.90
23629;DHT22;11991;57.150;-2.134;2023-05-16T07:51:31;11.70;99.90
23629;DHT22;11991;57.150;-2.134;2023-05-16T07:53:59;11.80;99.90
23629;DHT22;11991;57.150;-2.134;2023-05-16T07:56:26;11.80;99.90
23629;DHT22;11991;57.150;-2.134;2023-05-16T07:58:54;11.90;99.90
23629;DHT22;11991;57.150;-2.134;2023-05-16T08:01:21;12.00;99.90
23629;DHT22;11991;57.150;-2.134;2023-05-16T08:03:48;12.00;99.90
23629;DHT22;11991;57.150;-2.134;2023-05-16T08:06:16;12.10;99.90
23629;DHT22;11991;57.150;-2.134;2023-05-16T08:08:43;12.20;99.90
23629;DHT22;11991;57.150;-2.134;2023-05-16T08:11:10;12.30;99.90
23629;DHT22;11991;57.150;-2.134;2023-05-16T08:13:37;12.40;99.90
23629;DHT22;11991;57.150;-2.134;2023-05-16T08:16:04;12.50;99.90
23629;DHT22;11991;57.150;-2.134;2023-05-16T08:18:31;12.60;99.90
23629;DHT22;11991;57.150;-2.134;2023-05-16T08:20:59;12.60;99.90
23629;DHT22;11991;57.150;-2.134;2023-05-16T08:23:26;12.60;99.90
23629;DHT22;11991;57.150;-2.134;2023-05-16T08:25:53;12.50;99.90
23629;DHT22;11991;57.150;-2.134;2023-05-16T08:28:20;12.50;99.90
23629;DHT22;11991;57.150;-2.134;2023-05-16T08:30:47;12.50;99.90
23629;DHT22;11991;57.150;-2.134;2023-05-16T08:33:14;12.60;99.90
23629;DHT22;11991;57.150;-2.134;2023-05-16T08:35:42;12.70;99.90
23629;DHT22;11991;57.150;-2.134;2023-05-16T08:38:10;12.80;99.90
23629;DHT22;11991;57.150;-2.134;2023-05-16T08:40:37;12.90;99.90
23629;DHT22;11991;57.150;-2.134;2023-05-16T08:43:06;12.90;99.90
23629;DHT22;11991;57.150;-2.134;2023-05-16T08:45:34;12.70;99.90
23629;DHT22;11991;57.150;-2.134;2023-05-16T08:48:01;12.60;99.90
23629;DHT22;11991;57.150;-2.134;2023-05-16T08:50:32;12.40;99.90
23629;DHT22;11991;57.150;-2.134;2023-05-16T08:53:04;12.40;99.90
23629;DHT22;11991;57.150;-2.134;2023-05-16T08:55:34;12.30;99.90
23629;DHT22;11991;57.150;-2.134;2023-05-16T08:58:02;12.30;99.90
23629;DHT22;11991;57.150;-2.134;2023-05-16T09:00:30;12.30;99.90
23629;DHT22;11991;57.150;-2.134;2023-05-16T09:02:57;12.30;99.90
23629;DHT22;11991;57.150;-2.134;2023-05-16T09:05:28;12.40;99.90
23629;DHT22;11991;57.150;-2.134;2023-05-16T09:07:56;12.50;99.90
23629;DHT22;11991;57.150;-2.134;2023-05-16T09:10:23;12.60;99.90
23629;DHT22;11991;57.150;-2.134;2023-05-16T09:12:50;12.70;99.90
23629;DHT22;11991;57.150;-2.134;2023-05-16T09:15:19;12.70;99.90
23629;DHT22;11991;57.150;-2.134;2023-05-16T09:17:49;12.70;99.90
23629;DHT22;11991;57.150;-2.134;2023-05-16T09:20:18;12.60;99.90
23629;DHT22;11991;57.150;-2.134;2023-05-16T09:25:17;12.60;99.90
23629;DHT22;11991;57.150;-2.134;2023-05-16T09:27:58;12.70;99.90
23629;DHT22;11991;57.150;-2.134;2023-05-16T09:30:33;12.80;99.90
23629;DHT22;11991;57.150;-2.134;2023-05-16T09:33:01;12.90;99.90
23629;DHT22;11991;57.150;-2.134;2023-05-16T09:35:30;13.00;99.90
23629;DHT22;11991;57.150;-2.134;2023-05-16T09:38:00;13.10;99.90
23629;DHT22;11991;57.150;-2.134;2023-05-16T09:40:27;13.10;99.90
23629;DHT22;11991;57.150;-2.134;2023-05-16T09:43:02;13.10;99.90
23629;DHT22;11991;57.150;-2.134;2023-05-16T09:45:33;13.10;99.90
23629;DHT22;11991;57.150;-2.134;2023-05-16T09:48:07;13.20;99.90
23629;DHT22;11991;57.150;-2.134;2023-05-16T09:50:36;13.20;99.90
23629;DHT22;11991;57.150;-2.134;2023-05-16T09:53:04;13.20;99.90
23629;DHT22;11991;57.150;-2.134;2023-05-16T09:55:31;13.20;99.90
23629;DHT22;11991;57.150;-2.134;2023-05-16T09:57:59;13.00;99.90
23629;DHT22;11991;57.150;-2.134;2023-05-16T10:00:31;12.80;99.90
23629;DHT22;11991;57.150;-2.134;2023-05-16T10:03:02;12.60;99.90
23629;DHT22;11991;57.150;-2.134;2023-05-16T10:05:32;12.30;99.90
23629;DHT22;11991;57.150;-2.134;2023-05-16T10:08:02;12.20;99.90
23629;DHT22;11991;57.150;-2.134;2023-05-16T10:10:30;12.20;99.90
23629;DHT22;11991;57.150;-2.134;2023-05-16T10:12:59;12.10;99.90
23629;DHT22;11991;57.150;-2.134;2023-05-16T10:15:28;12.00;99.90
23629;DHT22;11991;57.150;-2.134;2023-05-16T10:17:57;12.00;99.90
23629;DHT22;11991;57.150;-2.134;2023-05-16T10:20:26;12.00;99.90
23629;DHT22;11991;57.150;-2.134;2023-05-16T10:22:55;12.10;99.90
23629;DHT22;11991;57.150;-2.134;2023-05-16T10:25:31;12.10;99.90
23629;DHT22;11991;57.150;-2.134;2023-05-16T10:27:59;12.10;99.90
23629;DHT22;11991;57.150;-2.134;2023-05-16T10:30:27;12.00;99.90
23629;DHT22;11991;57.150;-2.134;2023-05-16T10:32:55;11.80;99.90
23629;DHT22;11991;57.150;-2.134;2023-05-16T10:35:23;11.60;99.90
23629;DHT22;11991;57.150;-2.134;2023-05-16T10:37:50;11.50;99.90
23629;DHT22;11991;57.150;-2.134;2023-05-16T10:40:19;11.50;99.90
23629;DHT22;11991;57.150;-2.134;2023-05-16T10:42:59;11.50;99.90
23629;DHT22;11991;57.150;-2.134;2023-05-16T10:45:27;11.60;99.90
23629;DHT22;11991;57.150;-2.134;2023-05-16T10:48:01;11.60;99.90
23629;DHT22;11991;57.150;-2.134;2023-05-16T10:50:45;11.70;99.90
23629;DHT22;11991;57.150;-2.134;2023-05-16T11:01:17;12.30;99.90
23629;DHT22;11991;57.150;-2.134;2023-05-16T11:11:46;12.90;99.90
23629;DHT22;11991;57.150;-2.134;2023-05-16T11:14:26;12.90;99.90
23629;DHT22;11991;57.150;-2.134;2023-05-16T11:17:12;12.90;99.90
23629;DHT22;11991;57.150;-2.134;2023-05-16T11:19:43;12.90;99.90
23629;DHT22;11991;57.150;-2.134;2023-05-16T11:22:27;13.00;99.90
23629;DHT22;11991;57.150;-2.134;2023-05-16T11:27:32;12.80;99.90
23629;DHT22;11991;57.150;-2.134;2023-05-16T11:32:34;12.80;99.90
23629;DHT22;11991;57.150;-2.134;2023-05-16T11:35:05;12.70;99.90
23629;DHT22;11991;57.150;-2.134;2023-05-16T11:37:34;12.50;99.90
23629;DHT22;11991;57.150;-2.134;2023-05-16T11:40:08;12.40;99.90
23629;DHT22;11991;57.150;-2.134;2023-05-16T11:42:42;12.20;99.90
23629;DHT22;11991;57.150;-2.134;2023-05-16T11:45:15;12.20;99.90
23629;DHT22;11991;57.150;-2.134;2023-05-16T11:47:44;12.30;99.90
23629;DHT22;11991;57.150;-2.134;2023-05-16T11:50:13;12.40;99.90
23629;DHT22;11991;57.150;-2.134;2023-05-16T11:52:49;12.40;99.90
23629;DHT22;11991;57.150;-2.134;2023-05-16T11:55:24;12.50;99.90
23629;DHT22;11991;57.150;-2.134;2023-05-16T11:58:08;12.50;99.90
23629;DHT22;11991;57.150;-2.134;2023-05-16T12:00:35;12.50;99.90
23629;DHT22;11991;57.150;-2.134;2023-05-16T12:03:03;12.50;99.90
23629;DHT22;11991;57.150;-2.134;2023-05-16T12:05:31;12.60;99.90
23629;DHT22;11991;57.150;-2.134;2023-05-16T12:08:01;12.70;99.90
23629;DHT22;11991;57.150;-2.134;2023-05-16T12:10:31;12.70;99.90
23629;DHT22;11991;57.150;-2.134;2023-05-16T12:13:01;12.70;99.90
23629;DHT22;11991;57.150;-2.134;2023-05-16T12:15:29;12.80;99.90
23629;DHT22;11991;57.150;-2.134;2023-05-16T12:17:57;12.90;99.90
23629;DHT22;11991;57.150;-2.134;2023-05-16T12:20:24;12.80;99.90
23629;DHT22;11991;57.150;-2.134;2023-05-16T12:22:52;12.80;99.90
23629;DHT22;11991;57.150;-2.134;2023-05-16T12:27:58;12.70;99.90
23629;DHT22;11991;57.150;-2.134;2023-05-16T12:30:26;12.70;99.90
23629;DHT22;11991;57.150;-2.134;2023-05-16T12:33:11;12.80;99.90
23629;DHT22;11991;57.150;-2.134;2023-05-16T12:35:43;12.90;99.90
23629;DHT22;11991;57.150;-2.134;2023-05-16T12:38:13;13.00;99.90
23629;DHT22;11991;57.150;-2.134;2023-05-16T12:40:42;13.10;99.90
23629;DHT22;11991;57.150;-2.134;2023-05-16T12:43:20;13.10;99.90
23629;DHT22;11991;57.150;-2.134;2023-05-16T12:45:53;13.30;99.90
23629;DHT22;11991;57.150;-2.134;2023-05-16T12:48:21;13.50;99.90
23629;DHT22;11991;57.150;-2.134;2023-05-16T12:50:49;13.70;99.90
23629;DHT22;11991;57.150;-2.134;2023-05-16T12:53:17;13.50;99.90
23629;DHT22;11991;57.150;-2.134;2023-05-16T12:55:45;13.50;99.90
23629;DHT22;11991;57.150;-2.134;2023-05-16T12:58:12;13.60;99.90
23629;DHT22;11991;57.150;-2.134;2023-05-16T13:00:39;13.80;99.90
23629;DHT22;11991;57.150;-2.134;2023-05-16T13:03:06;13.80;99.90
23629;DHT22;11991;57.150;-2.134;2023-05-16T13:05:34;13.90;99.90
23629;DHT22;11991;57.150;-2.134;2023-05-16T13:08:02;13.90;99.90
23629;DHT22;11991;57.150;-2.134;2023-05-16T13:10:30;13.80;99.90
23629;DHT22;11991;57.150;-2.134;2023-05-16T13:12:57;13.90;99.90
23629;DHT22;11991;57.150;-2.134;2023-05-16T13:15:26;14.00;99.90
23629;DHT22;11991;57.150;-2.134;2023-05-16T13:17:54;13.90;99.90
23629;DHT22;11991;57.150;-2.134;2023-05-16T13:20:21;13.90;99.90
23629;DHT22;11991;57.150;-2.134;2023-05-16T13:22:48;13.70;99.90
23629;DHT22;11991;57.150;-2.134;2023-05-16T13:25:15;13.90;99.90
23629;DHT22;11991;57.150;-2.134;2023-05-16T13:27:42;13.80;99.90
23629;DHT22;11991;57.150;-2.134;2023-05-16T13:30:10;13.80;99.90
23629;DHT22;11991;57.150;-2.134;2023-05-16T13:32:37;13.90;99.90
23629;DHT22;11991;57.150;-2.134;2023-05-16T13:35:05;13.80;99.90
23629;DHT22;11991;57.150;-2.134;2023-05-16T13:37:32;13.90;99.90
23629;DHT22;11991;57.150;-2.134;2023-05-16T13:40:00;13.90;99.90
23629;DHT22;11991;57.150;-2.134;2023-05-16T13:42:27;13.90;99.90
23629;DHT22;11991;57.150;-2.134;2023-05-16T13:44:54;14.00;99.90
23629;DHT22;11991;57.150;-2.134;2023-05-16T13:47:22;14.10;99.90
23629;DHT22;11991;57.150;-2.134;2023-05-16T13:49:49;14.20;99.90
23629;DHT22;11991;57.150;-2.134;2023-05-16T13:52:16;14.20;99.90
23629;DHT22;11991;57.150;-2.134;2023-05-16T13:54:43;14.30;99.90
23629;DHT22;11991;57.150;-2.134;2023-05-16T13:57:11;14.30;99.90
23629;DHT22;11991;57.150;-2.134;2023-05-16T13:59:38;14.40;99.90
23629;DHT22;11991;57.150;-2.134;2023-05-16T14:02:08;14.50;99.90
23629;DHT22;11991;57.150;-2.134;2023-05-16T14:04:35;14.60;99.90
23629;DHT22;11991;57.150;-2.134;2023-05-16T14:07:02;14.70;99.90
23629;DHT22;11991;57.150;-2.134;2023-05-16T14:09:29;14.70;99.90
23629;DHT22;11991;57.150;-2.134;2023-05-16T14:11:57;14.70;99.90
23629;DHT22;11991;57.150;-2.134;2023-05-16T14:14:25;14.90;99.90
23629;DHT22;11991;57.150;-2.134;2023-05-16T14:16:52;14.70;99.90
23629;DHT22;11991;57.150;-2.134;2023-05-16T14:19:19;14.60;99.90
23629;DHT22;11991;57.150;-2.134;2023-05-16T14:21:46;14.60;99.90
23629;DHT22;11991;57.150;-2.134;2023-05-16T14:24:13;14.50;99.90
23629;DHT22;11991;57.150;-2.134;2023-05-16T14:26:41;14.50;99.90
23629;DHT22;11991;57.150;-2.134;2023-05-16T14:29:08;14.60;99.90
23629;DHT22;11991;57.150;-2.134;2023-05-16T14:31:35;14.60;99.90
23629;DHT22;11991;57.150;-2.134;2023-05-16T14:34:03;14.40;99.90
23629;DHT22;11991;57.150;-2.134;2023-05-16T14:36:30;14.30;99.90
23629;DHT22;11991;57.150;-2.134;2023-05-16T14:38:58;14.40;99.90
23629;DHT22;11991;57.150;-2.134;2023-05-16T14:41:25;14.30;99.90
23629;DHT22;11991;57.150;-2.134;2023-05-16T14:43:52;14.20;99.90
23629;DHT22;11991;57.150;-2.134;2023-05-16T14:46:19;14.20;99.90
23629;DHT22;11991;57.150;-2.134;2023-05-16T14:48:46;14.20;99.90
23629;DHT22;11991;57.150;-2.134;2023-05-16T14:51:13;14.30;99.90
23629;DHT22;11991;57.150;-2.134;2023-05-16T14:53:41;14.30;99.90
23629;DHT22;11991;57.150;-2.134;2023-05-16T14:56:10;14.30;99.90
23629;DHT22;11991;57.150;-2.134;2023-05-16T14:58:37;14.30;99.90
23629;DHT22;11991;57.150;-2.134;2023-05-16T15:01:04;14.20;99.90
23629;DHT22;11991;57.150;-2.134;2023-05-16T15:03:31;14.10;99.90
23629;DHT22;11991;57.150;-2.134;2023-05-16T15:06:12;14.20;99.90
23629;DHT22;11991;57.150;-2.134;2023-05-16T15:08:40;14.30;99.90
23629;DHT22;11991;57.150;-2.134;2023-05-16T15:11:07;14.20;99.90
23629;DHT22;11991;57.150;-2.134;2023-05-16T15:13:34;14.00;99.90
23629;DHT22;11991;57.150;-2.134;2023-05-16T15:16:01;14.00;99.90
23629;DHT22;11991;57.150;-2.134;2023-05-16T15:18:29;14.10;99.90
23629;DHT22;11991;57.150;-2.134;2023-05-16T15:20:56;14.10;99.90
23629;DHT22;11991;57.150;-2.134;2023-05-16T15:23:23;14.20;99.90
23629;DHT22;11991;57.150;-2.134;2023-05-16T15:25:51;14.20;99.90
23629;DHT22;11991;57.150;-2.134;2023-05-16T15:28:19;14.20;99.90
23629;DHT22;11991;57.150;-2.134;2023-05-16T15:30:50;14.30;99.90
23629;DHT22;11991;57.150;-2.134;2023-05-16T15:33:17;14.40;99.90
23629;DHT22;11991;57.150;-2.134;2023-05-16T15:35:45;14.50;99.90
23629;DHT22;11991;57.150;-2.134;2023-05-16T15:38:12;14.30;99.90
23629;DHT22;11991;57.150;-2.134;2023-05-16T15:40:39;14.40;99.90
23629;DHT22;11991;57.150;-2.134;2023-05-16T15:43:06;14.50;99.90
23629;DHT22;11991;57.150;-2.134;2023-05-16T15:45:34;14.50;99.90
23629;DHT22;11991;57.150;-2.134;2023-05-16T15:48:05;14.50;99.90
23629;DHT22;11991;57.150;-2.134;2023-05-16T15:50:33;14.50;99.90
23629;DHT22;11991;57.150;-2.134;2023-05-16T15:53:00;14.50;99.90
23629;DHT22;11991;57.150;-2.134;2023-05-16T15:55:27;14.40;99.90
23629;DHT22;11991;57.150;-2.134;2023-05-16T15:57:55;14.40;99.90
23629;DHT22;11991;57.150;-2.134;2023-05-16T16:00:24;14.40;99.90